Time;durP1;ratioP1;P1;durP2;ratioP2;P2;SDS_P1;SDS_P2;PMS_P1;PMS_P2;Temp;Humidity;BMP_temperature;BMP_pressure;BME280_temperature;BME280_humidity;BME280_pressure;Samples;Min_cycle;Max_cycle;Signal;HPM_P1;HPM_P2
2023/01/12 00:00:57;;;;;;;4.78;1.60;;;;;;;4.19;100.00;95940.88;4994518;28;20042;-81
2023/01/12 00:03:23;;;;;;;6.80;1.58;;;;;;;4.18;100.00;95949.72;4994642;28;20124;-81
2023/01/12 00:05:49;;;;;;;3.97;1.30;;;;;;;4.10;100.00;95950.81;4996240;28;20050;-80
2023/01/12 00:08:14;;;;;;;5.45;1.38;;;;;;;4.04;100.00;95954.25;5010292;28;20046;-81
2023/01/12 00:10:40;;;;;;;3.45;1.20;;;;;;;3.92;100.00;95931.56;4993943;28;20492;-81
2023/01/12 00:13:05;;;;;;;2.65;1.05;;;;;;;3.85;100.00;95941.25;4995441;28;20038;-81
2023/01/12 00:18:18;;;;;;;1.90;1.00;;;;;;;3.71;100.00;95934.59;5014014;28;20042;-81
2023/01/12 00:20:48;;;;;;;2.95;1.20;;;;;;;3.72;100.00;95936.16;5006277;28;20653;-81
2023/01/12 00:23:14;;;;;;;5.93;1.52;;;;;;;3.67;100.00;95939.41;4994663;28;20044;-82
2023/01/12 00:25:39;;;;;;;2.70;1.10;;;;;;;3.53;100.00;95923.09;5013127;28;20042;-81
2023/01/12 00:28:05;;;;;;;4.45;1.38;;;;;;;3.46;100.00;95932.78;4996744;28;20041;-81
2023/01/12 00:30:31;;;;;;;3.05;1.25;;;;;;;3.40;100.00;95931.03;4992468;28;20038;-82
2023/01/12 00:32:56;;;;;;;4.05;1.30;;;;;;;3.34;100.00;95929.28;5004787;28;20041;-82
2023/01/12 00:35:22;;;;;;;2.47;1.08;;;;;;;3.18;100.00;95908.00;5013077;28;20112;-81
2023/01/12 00:37:48;;;;;;;3.22;1.30;;;;;;;3.28;100.00;95923.91;5012523;28;20053;-82
2023/01/12 00:40:13;;;;;;;2.67;1.42;;;;;;;3.21;100.00;95925.78;4996080;28;20057;-82
2023/01/12 00:45:24;;;;;;;6.82;1.88;;;;;;;3.12;100.00;95921.84;5012920;28;20042;-82
2023/01/12 00:47:50;;;;;;;4.32;1.92;;;;;;;3.09;100.00;95922.28;5013372;28;20046;-82
2023/01/12 00:50:16;;;;;;;6.40;1.52;;;;;;;3.09;100.00;95923.06;5014936;28;20042;-81
2023/01/12 00:52:41;;;;;;;5.10;2.10;;;;;;;3.06;100.00;95922.69;5005543;28;20506;-81
2023/01/12 00:55:07;;;;;;;4.05;1.90;;;;;;;2.99;100.00;95914.13;4995152;28;20483;-81
2023/01/12 00:57:33;;;;;;;8.57;2.03;;;;;;;3.01;100.00;95919.94;5013439;28;20069;-81
2023/01/12 00:59:58;;;;;;;3.60;1.38;;;;;;;2.97;100.00;95916.16;4995794;28;20411;-81
2023/01/12 01:02:25;;;;;;;6.20;1.95;;;;;;;2.98;100.00;95930.75;4978356;28;20042;-80
2023/01/12 01:04:51;;;;;;;3.30;1.80;;;;;;;3.02;100.00;95929.34;5011805;28;20113;-81
2023/01/12 01:07:17;;;;;;;7.10;2.05;;;;;;;3.02;100.00;95943.13;4995673;28;20463;-81
2023/01/12 01:09:43;;;;;;;6.20;1.90;;;;;;;2.83;100.00;95937.06;5006426;28;20504;-80
2023/01/12 01:12:09;;;;;;;4.30;2.03;;;;;;;2.87;100.00;95940.81;5008397;28;20408;-81
2023/01/12 01:14:35;;;;;;;6.28;1.83;;;;;;;2.77;100.00;95940.47;5005566;28;20044;-81
2023/01/12 01:17:01;;;;;;;4.80;1.90;;;;;;;2.83;100.00;95944.03;5006049;28;20515;-81
2023/01/12 01:19:26;;;;;;;2.63;1.52;;;;;;;2.79;100.00;95943.69;4995193;28;20034;-81
2023/01/12 01:21:52;;;;;;;3.90;1.98;;;;;;;2.77;100.00;95930.06;4995565;28;20091;-81
2023/01/12 01:24:17;;;;;;;5.43;1.98;;;;;;;2.74;100.00;95925.31;5014256;28;20049;-81
2023/01/12 01:26:43;;;;;;;11.52;1.85;;;;;;;2.80;100.00;95928.88;4992063;28;20042;-81
2023/01/12 01:29:10;;;;;;;8.43;2.13;;;;;;;2.82;100.00;95938.06;5008529;28;20432;-80
2023/01/12 01:31:36;;;;;;;9.02;2.17;;;;;;;2.84;100.00;95943.81;5012548;28;20038;-81
2023/01/12 01:34:01;;;;;;;8.15;1.60;;;;;;;2.60;100.00;95943.56;5023458;28;20037;-81
2023/01/12 01:36:27;;;;;;;5.80;2.25;;;;;;;2.60;100.00;95946.16;4994482;28;20073;-81
2023/01/12 01:38:53;;;;;;;7.90;1.65;;;;;;;2.74;100.00;95941.72;4979675;28;20053;-81
2023/01/12 01:41:22;;;;;;;10.07;1.70;;;;;;;2.72;100.00;95942.91;4975628;28;20477;-81
2023/01/12 01:43:58;;;;;;;7.25;2.05;;;;;;;2.75;100.00;95942.50;4993880;28;20385;-81
2023/01/12 01:46:46;;;;;;;7.28;1.88;;;;;;;2.74;100.00;95943.50;4992408;28;20046;-80
2023/01/12 01:49:31;;;;;;;8.50;1.58;;;;;;;2.69;100.00;95948.53;4994742;28;20081;-81
2023/01/12 01:52:06;;;;;;;6.65;1.80;;;;;;;2.67;100.00;95940.13;5006884;28;20048;-81
2023/01/12 01:54:38;;;;;;;6.88;1.45;;;;;;;2.54;100.00;95941.81;5011781;28;20185;-82
2023/01/12 01:57:05;;;;;;;8.00;1.50;;;;;;;2.58;100.00;95942.97;5012721;28;20053;-80
2023/01/12 01:59:34;;;;;;;4.05;1.40;;;;;;;2.64;100.00;95920.56;4994398;28;20048;-80
2023/01/12 02:02:01;;;;;;;10.30;1.85;;;;;;;2.57;100.00;95931.00;4986062;28;20045;-80
2023/01/12 02:04:27;;;;;;;8.52;2.00;;;;;;;2.55;100.00;95933.00;5011069;28;20052;-80
2023/01/12 02:06:55;;;;;;;5.78;1.45;;;;;;;2.59;100.00;95931.56;4993628;28;20500;-80
2023/01/12 02:09:24;;;;;;;5.97;1.40;;;;;;;2.53;100.00;95935.00;4982784;28;20046;-78
2023/01/12 02:17:55;;;;;;;5.13;1.40;;;;;;;2.58;100.00;95922.19;5002091;28;20039;-77
2023/01/12 02:20:51;;;;;;;5.10;1.38;;;;;;;2.51;100.00;95924.00;5002967;28;20050;-76
2023/01/12 02:23:25;;;;;;;3.25;1.33;;;;;;;2.47;100.00;95909.06;5001175;28;20042;-77
2023/01/12 02:26:14;;;;;;;8.20;1.60;;;;;;;2.38;100.00;95905.91;5010079;28;20453;-79
2023/01/12 02:28:51;;;;;;;6.93;1.73;;;;;;;2.40;100.00;95911.72;5012124;28;20050;-79
2023/01/12 02:31:55;;;;;;;9.45;1.48;;;;;;;2.32;100.00;95901.56;4995269;28;20041;-79
2023/01/12 02:34:54;;;;;;;4.57;1.25;;;;;;;2.36;100.00;95902.72;5005871;28;20049;-79
2023/01/12 02:37:58;;;;;;;5.63;1.50;;;;;;;2.28;100.00;95906.34;4958012;28;20591;-79
2023/01/12 02:40:24;;;;;;;7.40;1.73;;;;;;;2.31;100.00;95905.16;4992783;28;20096;-79
2023/01/12 02:43:03;;;;;;;4.38;1.58;;;;;;;2.23;100.00;95903.59;5002033;28;20045;-80
2023/01/12 02:45:34;;;;;;;13.70;1.48;;;;;;;2.29;100.00;95896.78;5011376;28;20408;-80
2023/01/12 02:48:18;;;;;;;8.30;1.92;;;;;;;2.25;100.00;95902.34;4994100;28;20128;-80
2023/01/12 02:50:55;;;;;;;10.97;2.03;;;;;;;2.15;100.00;95896.81;4990376;28;20052;-79
2023/01/12 02:53:32;;;;;;;4.30;1.25;;;;;;;2.14;100.00;95910.00;5007736;28;20137;-78
2023/01/12 02:56:04;;;;;;;7.15;2.13;;;;;;;2.12;100.00;95901.63;5011153;28;20046;-79
2023/01/12 02:58:35;;;;;;;4.80;1.25;;;;;;;2.01;100.00;95890.91;5011556;28;20559;-79
2023/01/12 03:01:03;;;;;;;2.42;1.13;;;;;;;2.06;100.00;95898.06;5008429;28;20046;-79
2023/01/12 03:03:29;;;;;;;4.38;1.38;;;;;;;2.05;100.00;95896.47;5011149;28;20083;-79
2023/01/12 03:05:57;;;;;;;8.50;1.38;;;;;;;2.14;100.00;95897.84;5010847;28;20049;-79
2023/01/12 03:08:27;;;;;;;5.82;1.30;;;;;;;2.15;100.00;95904.59;5011397;28;20096;-79
2023/01/12 03:11:11;;;;;;;6.32;1.40;;;;;;;2.16;100.00;95888.03;4982213;28;20062;-78
2023/01/12 03:13:50;;;;;;;5.18;1.10;;;;;;;2.22;100.00;95892.38;5009272;28;20049;-78
2023/01/12 03:16:21;;;;;;;6.18;1.40;;;;;;;2.29;100.00;95891.59;5009136;28;20054;-78
2023/01/12 03:18:52;;;;;;;7.15;1.63;;;;;;;2.36;100.00;95892.34;5010874;28;20081;-80
2023/01/12 03:21:33;;;;;;;7.20;1.60;;;;;;;2.20;100.00;95886.63;5010915;28;20559;-79
2023/01/12 03:24:15;;;;;;;10.18;1.95;;;;;;;2.35;100.00;95895.94;5008567;28;20034;-79
2023/01/12 03:26:46;;;;;;;6.75;1.50;;;;;;;2.32;100.00;95885.97;4993371;28;20038;-78
2023/01/12 03:29:18;;;;;;;5.78;1.30;;;;;;;2.36;100.00;95892.34;4991566;28;20038;-79
2023/01/12 03:31:44;;;;;;;4.40;1.65;;;;;;;2.45;100.00;95885.09;5002093;28;20046;-78
2023/01/12 03:34:10;;;;;;;5.43;1.63;;;;;;;2.46;100.00;95894.47;5000151;28;20508;-79
2023/01/12 03:36:52;;;;;;;6.38;1.52;;;;;;;2.45;100.00;95880.69;5014640;28;20038;-80
2023/01/12 03:39:36;;;;;;;5.18;1.73;;;;;;;2.48;100.00;95895.84;5010555;28;20041;-79
2023/01/12 03:42:10;;;;;;;5.97;1.33;;;;;;;2.43;100.00;95890.50;4987014;28;20476;-79
2023/01/12 03:44:42;;;;;;;7.88;1.10;;;;;;;2.42;100.00;95888.91;4990123;28;20037;-78
2023/01/12 03:47:25;;;;;;;6.05;1.42;;;;;;;2.44;100.00;95905.06;4988279;28;20048;-79
2023/01/12 03:50:29;;;;;;;6.80;1.67;;;;;;;2.49;100.00;95896.69;4988596;28;20042;-79
2023/01/12 03:52:58;;;;;;;4.47;1.30;;;;;;;2.42;100.00;95891.50;4913464;29;20055;-78
2023/01/12 03:55:26;;;;;;;5.22;1.77;;;;;;;2.37;100.00;95888.72;4998508;28;20061;-78
2023/01/12 03:57:52;;;;;;;5.95;1.80;;;;;;;2.37;100.00;95888.72;5005949;28;20039;-78
2023/01/12 04:00:20;;;;;;;3.88;1.40;;;;;;;2.38;100.00;95890.31;5011851;28;20056;-79
2023/01/12 04:02:45;;;;;;;5.15;1.23;;;;;;;2.37;100.00;95891.31;4995972;28;20540;-78
2023/01/12 04:05:13;;;;;;;2.78;1.13;;;;;;;2.34;100.00;95884.75;4999233;28;20049;-78
2023/01/12 04:07:39;;;;;;;3.88;1.63;;;;;;;2.32;100.00;95880.78;5005536;28;20039;-78
2023/01/12 04:10:05;;;;;;;6.20;1.35;;;;;;;2.37;100.00;95867.94;4995051;28;20050;-78
2023/01/12 04:12:31;;;;;;;9.75;1.55;;;;;;;2.38;100.00;95869.53;4995710;28;20100;-78
2023/01/12 04:14:56;;;;;;;4.53;1.23;;;;;;;2.39;100.00;95868.53;5020499;28;20038;-78
2023/01/12 04:17:24;;;;;;;10.15;1.77;;;;;;;2.49;100.00;95866.28;5028965;28;20041;-78
2023/01/12 04:19:50;;;;;;;4.78;1.50;;;;;;;2.51;100.00;95879.84;4995016;28;20077;-78
2023/01/12 04:25:02;;;;;;;6.68;1.60;;;;;;;2.46;100.00;95877.09;5002732;28;20038;-78
2023/01/12 04:27:27;;;;;;;9.85;1.55;;;;;;;2.44;100.00;95873.91;5010732;28;20038;-78
2023/01/12 04:29:53;;;;;;;6.28;1.65;;;;;;;2.41;100.00;95871.72;4988421;28;20389;-78
2023/01/12 04:32:20;;;;;;;3.50;1.23;;;;;;;2.38;100.00;95864.34;4976631;28;20668;-78
2023/01/12 04:34:45;;;;;;;7.53;1.77;;;;;;;2.34;100.00;95863.16;5002139;28;20041;-78
2023/01/12 04:37:11;;;;;;;8.00;1.27;;;;;;;2.46;100.00;95866.72;4993523;28;20119;-78
2023/01/12 04:39:36;;;;;;;8.77;1.55;;;;;;;2.32;100.00;95862.59;4976200;28;20126;-78
2023/01/12 04:42:02;;;;;;;2.13;1.00;;;;;;;2.34;100.00;95863.16;4993140;28;20112;-78
2023/01/12 04:44:28;;;;;;;6.82;1.58;;;;;;;2.31;100.00;95853.19;4996759;28;20034;-78
2023/01/12 04:46:53;;;;;;;10.02;1.67;;;;;;;2.20;100.00;95852.84;4995034;28;20068;-78
2023/01/12 04:49:19;;;;;;;3.92;1.27;;;;;;;2.24;100.00;95848.84;4995679;28;20566;-78
2023/01/12 04:51:45;;;;;;;2.45;1.35;;;;;;;2.25;100.00;95860.03;4993502;28;20160;-78
2023/01/12 04:54:10;;;;;;;9.32;1.60;;;;;;;2.20;100.00;95858.06;4993301;28;20046;-78
2023/01/12 04:56:36;;;;;;;4.00;1.27;;;;;;;2.06;100.00;95861.72;4993891;28;20034;-78
2023/01/12 04:59:01;;;;;;;5.75;0.98;;;;;;;2.12;100.00;95850.50;5020343;28;20037;-78
2023/01/12 05:01:28;;;;;;;3.70;1.27;;;;;;;2.14;100.00;95860.66;5007249;28;20033;-78
2023/01/12 05:03:56;;;;;;;4.60;1.20;;;;;;;2.12;100.00;95854.91;5000010;28;20771;-79
2023/01/12 05:06:23;;;;;;;4.72;1.42;;;;;;;2.00;100.00;95857.34;4992207;28;20049;-78
2023/01/12 05:11:33;;;;;;;5.50;1.10;;;;;;;1.86;100.00;95857.38;5006380;28;20454;-78
2023/01/12 05:13:59;;;;;;;7.07;1.17;;;;;;;1.94;100.00;95855.56;4975877;28;20038;-78
2023/01/12 05:16:26;;;;;;;1.25;0.77;;;;;;;1.96;100.00;95856.16;5003782;28;20096;-78
2023/01/12 05:18:52;;;;;;;6.22;1.17;;;;;;;2.14;100.00;95858.88;4999304;28;20065;-79
2023/01/12 05:21:19;;;;;;;6.32;0.90;;;;;;;2.01;100.00;95853.75;5008966;28;20496;-78
2023/01/12 05:23:44;;;;;;;6.53;1.02;;;;;;;1.97;100.00;95857.75;4986333;28;20046;-77
2023/01/12 05:26:11;;;;;;;6.10;1.50;;;;;;;1.95;100.00;95860.53;5008835;28;20119;-78
2023/01/12 05:28:37;;;;;;;4.30;1.33;;;;;;;1.91;100.00;95848.97;4991772;28;20042;-78
2023/01/12 05:31:09;;;;;;;9.27;1.52;;;;;;;1.90;100.00;95847.41;4991711;28;20096;-77
2023/01/12 05:33:36;;;;;;;7.07;1.20;;;;;;;1.86;100.00;95849.59;5002940;28;20052;-78
2023/01/12 05:36:04;;;;;;;8.43;1.13;;;;;;;1.86;100.00;95841.81;4983498;28;20041;-78
2023/01/12 05:38:29;;;;;;;9.50;1.27;;;;;;;1.87;100.00;95848.59;4998094;28;20046;-78
2023/01/12 05:40:59;;;;;;;3.70;1.30;;;;;;;1.94;100.00;95852.97;4999039;28;20076;-77
2023/01/12 05:46:09;;;;;;;;;;;;;;;1.95;100.00;95849.38;4995987;28;20060;-78
2023/01/12 05:48:35;;;;;;;1.48;1.00;;;;;;;2.01;100.00;95853.75;5010368;28;19964;-78
2023/01/12 05:51:01;;;;;;;3.40;1.10;;;;;;;2.10;100.00;95857.72;5003565;28;20049;-78
2023/01/12 05:53:27;;;;;;;5.63;1.08;;;;;;;2.05;100.00;95850.53;5009161;28;20038;-77
2023/01/12 05:55:53;;;;;;;2.25;1.00;;;;;;;1.99;100.00;95851.34;4998469;28;20488;-78
2023/01/12 05:58:18;;;;;;;6.25;1.13;;;;;;;2.00;100.00;95842.56;5005927;28;20044;-78
2023/01/12 06:00:44;;;;;;;3.33;0.90;;;;;;;1.96;100.00;95835.41;5002335;28;20504;-78
2023/01/12 06:03:09;;;;;;;3.53;1.30;;;;;;;2.02;100.00;95844.94;5010347;28;20052;-78
2023/01/12 06:05:35;;;;;;;5.43;1.30;;;;;;;1.97;100.00;95836.97;5001829;28;20042;-79
2023/01/12 06:08:01;;;;;;;4.47;1.15;;;;;;;1.91;100.00;95838.59;4990200;28;20064;-78
2023/01/12 06:10:27;;;;;;;4.40;1.00;;;;;;;1.99;100.00;95837.59;5009226;28;20100;-79
2023/01/12 06:15:37;;;;;;;3.13;1.00;;;;;;;2.12;100.00;95837.50;4996693;28;20084;-78
2023/01/12 06:18:03;;;;;;;3.60;1.35;;;;;;;2.11;100.00;95829.94;5006152;28;20039;-79
2023/01/12 06:20:29;;;;;;;4.70;1.27;;;;;;;2.25;100.00;95842.63;4992698;28;20054;-79
2023/01/12 06:22:54;;;;;;;5.93;0.90;;;;;;;2.43;100.00;95846.34;4992893;28;20085;-79
2023/01/12 06:25:20;;;;;;;1.23;1.00;;;;;;;2.36;100.00;95841.19;4993606;28;20042;-78
2023/01/12 06:27:45;;;;;;;2.50;1.17;;;;;;;2.53;100.00;95841.47;4997365;28;20707;-78
2023/01/12 06:30:12;;;;;;;3.05;0.98;;;;;;;2.51;100.00;95842.69;5023295;28;20041;-78
2023/01/12 06:32:37;;;;;;;5.45;1.05;;;;;;;2.50;100.00;95844.50;5038638;28;20037;-78
2023/01/12 06:35:04;;;;;;;3.92;1.00;;;;;;;2.55;100.00;95855.03;5037435;28;20042;-78
2023/01/12 06:37:29;;;;;;;5.60;1.13;;;;;;;2.72;100.00;95838.97;5010609;28;20042;-77
2023/01/12 06:39:55;;;;;;;5.43;1.48;;;;;;;2.75;100.00;95843.72;4995962;28;20045;-79
2023/01/12 06:42:30;;;;;;;5.05;1.48;;;;;;;2.84;100.00;95842.44;5016127;28;20045;-78
2023/01/12 06:44:57;;;;;;;6.28;1.60;;;;;;;2.85;100.00;95832.88;5019704;28;20038;-78
2023/01/12 06:47:24;;;;;;;1.90;1.02;;;;;;;2.99;100.00;95833.53;5011064;28;20049;-75
2023/01/12 06:49:50;;;;;;;5.15;1.40;;;;;;;3.02;100.00;95833.91;5004408;28;20061;-77
2023/01/12 06:52:20;;;;;;;5.53;1.13;;;;;;;3.03;100.00;95850.31;5020218;28;20046;-75
2023/01/12 06:54:47;;;;;;;2.47;1.05;;;;;;;3.26;100.00;95845.31;5022443;28;20030;-77
2023/01/12 06:57:13;;;;;;;2.25;0.80;;;;;;;3.33;100.00;95844.44;5010045;28;22429;-72
2023/01/12 06:59:40;;;;;;;9.30;1.27;;;;;;;3.48;100.00;95855.31;4986964;28;20492;-73
2023/01/12 07:02:13;;;;;;;4.90;1.20;;;;;;;3.37;100.00;95861.22;4991822;28;20050;-77
2023/01/12 07:04:39;;;;;;;4.72;1.13;;;;;;;3.45;100.00;95853.16;5008608;28;20034;-78
2023/01/12 07:07:06;;;;;;;4.43;1.35;;;;;;;3.53;100.00;95858.06;4976456;28;20054;-78
2023/01/12 07:09:33;;;;;;;3.05;1.02;;;;;;;3.55;100.00;95865.63;4998407;28;20038;-77
2023/01/12 07:11:58;;;;;;;6.13;1.52;;;;;;;3.57;100.00;95855.81;4999059;28;20036;-77
2023/01/12 07:14:24;;;;;;;7.35;1.20;;;;;;;3.57;100.00;95859.22;5006078;28;20500;-78
2023/01/12 07:16:49;;;;;;;3.45;1.08;;;;;;;3.57;100.00;95861.81;4993644;28;20419;-77
2023/01/12 07:19:15;;;;;;;7.10;0.70;;;;;;;3.52;100.00;95859.09;5009561;28;20100;-79
2023/01/12 07:21:42;;;;;;;6.65;1.20;;;;;;;3.55;100.00;95853.44;5019616;28;20065;-79
2023/01/12 07:24:09;;;;;;;4.10;1.17;;;;;;;3.59;100.00;95851.19;5003843;28;20073;-79
2023/01/12 07:26:35;;;;;;;3.28;1.17;;;;;;;3.57;100.00;95846.19;5013528;28;20042;-79
2023/01/12 07:29:00;;;;;;;5.40;1.63;;;;;;;3.48;100.00;95852.72;5009534;28;20050;-78
2023/01/12 07:31:29;;;;;;;1.85;1.02;;;;;;;3.57;100.00;95848.03;5017860;28;20034;-77
2023/01/12 07:34:13;;;;;;;2.78;1.13;;;;;;;3.49;100.00;95833.47;4994114;28;20042;-77
2023/01/12 07:36:38;;;;;;;4.85;1.70;;;;;;;3.68;100.00;95841.28;4987906;28;20060;-77
2023/01/12 07:39:04;;;;;;;5.60;1.10;;;;;;;3.63;100.00;95836.72;5007166;28;20041;-78
2023/01/12 07:44:14;;;;;;;6.07;1.20;;;;;;;3.74;100.00;95843.81;5007797;28;20046;-77
2023/01/12 07:46:39;;;;;;;6.40;1.73;;;;;;;3.68;100.00;95836.06;5008369;28;20052;-75
2023/01/12 07:49:05;;;;;;;1.60;0.75;;;;;;;3.76;100.00;95833.19;5005574;28;20160;-76
2023/01/12 07:51:30;;;;;;;4.78;1.08;;;;;;;3.77;100.00;95834.78;4998283;28;20052;-76
2023/01/12 07:53:56;;;;;;;4.82;1.13;;;;;;;3.84;100.00;95845.91;4992756;28;20033;-77
2023/01/12 07:56:21;;;;;;;4.45;1.40;;;;;;;3.83;100.00;95833.91;5013231;28;20397;-77
2023/01/12 07:58:48;;;;;;;6.63;1.13;;;;;;;3.82;100.00;95832.31;5004384;28;20069;-77
2023/01/12 08:01:14;;;;;;;4.22;1.25;;;;;;;3.82;100.00;95827.09;5008900;28;20045;-74
2023/01/12 08:03:39;;;;;;;3.38;0.80;;;;;;;3.90;100.00;95834.63;5011237;28;20455;-75
2023/01/12 08:06:05;;;;;;;3.30;0.70;;;;;;;3.96;100.00;95825.94;5004912;28;20045;-77
2023/01/12 08:08:31;;;;;;;3.50;0.80;;;;;;;3.93;100.00;95817.78;4998344;28;20419;-76
2023/01/12 08:11:08;;;;;;;3.00;0.85;;;;;;;3.97;100.00;95809.31;5004716;28;20405;-77
2023/01/12 08:13:35;;;;;;;5.75;1.30;;;;;;;3.95;100.00;95810.53;5002918;28;20058;-76
2023/01/12 08:16:07;;;;;;;6.00;1.10;;;;;;;4.16;100.00;95811.88;4986653;28;20050;-76
2023/01/12 08:18:47;;;;;;;3.22;1.08;;;;;;;4.22;100.00;95808.38;4988703;28;20420;-77
2023/01/12 08:21:18;;;;;;;2.83;1.13;;;;;;;4.30;100.00;95808.06;5010856;28;20053;-76
2023/01/12 08:23:48;;;;;;;5.82;0.95;;;;;;;4.37;100.00;95796.75;4997796;28;20050;-77
2023/01/12 08:26:19;;;;;;;6.30;1.00;;;;;;;4.50;100.00;95796.56;5012321;28;20037;-75
2023/01/12 08:28:50;;;;;;;10.38;1.05;;;;;;;4.54;100.00;95800.31;4992796;28;20042;-78
2023/01/12 08:31:18;;;;;;;5.93;1.00;;;;;;;4.68;100.00;95793.91;4994569;28;20053;-77
2023/01/12 08:33:45;;;;;;;6.95;1.48;;;;;;;4.71;100.00;95797.06;5021823;28;20117;-77
2023/01/12 08:36:14;;;;;;;5.05;1.10;;;;;;;4.87;100.00;95791.19;5021217;28;20065;-77
2023/01/12 08:38:40;;;;;;;2.63;0.73;;;;;;;4.95;100.00;95787.44;5020851;28;20119;-76
2023/01/12 08:44:04;;;;;;;7.68;1.33;;;;;;;5.11;100.00;95796.41;5023071;28;20037;-76
2023/01/12 08:46:50;;;;;;;2.65;0.68;;;;;;;5.24;100.00;95804.00;5038986;28;20057;-78
2023/01/12 08:49:21;;;;;;;6.80;1.23;;;;;;;5.21;100.00;95801.84;5021759;28;20044;-77
2023/01/12 08:51:46;;;;;;;9.57;1.50;;;;;;;5.19;100.00;95798.69;4994297;28;20073;-77
2023/01/12 08:54:15;;;;;;;5.13;0.85;;;;;;;5.25;100.00;95796.97;4982068;28;20075;-78
2023/01/12 08:56:41;;;;;;;5.22;0.88;;;;;;;5.24;100.00;95801.38;4998218;28;20043;-77
2023/01/12 08:59:06;;;;;;;3.55;0.90;;;;;;;5.24;100.00;95790.94;4999254;28;20062;-77
2023/01/12 09:01:32;;;;;;;6.15;0.90;;;;;;;5.37;100.00;95801.16;5007488;28;20050;-78
2023/01/12 09:03:59;;;;;;;2.60;0.90;;;;;;;5.46;100.00;95793.78;5030454;28;20038;-77
2023/01/12 09:06:47;;;;;;;6.60;1.23;;;;;;;5.37;100.00;95795.94;5020454;28;20158;-76
2023/01/12 09:09:18;;;;;;;3.92;1.35;;;;;;;5.43;100.00;95796.03;5027722;28;20565;-77
2023/01/12 09:11:45;;;;;;;5.47;1.40;;;;;;;5.48;100.00;95780.50;5002542;28;20054;-77
2023/01/12 09:14:12;;;;;;;6.10;1.67;;;;;;;5.72;100.00;95789.84;4998479;28;20057;-77
2023/01/12 09:16:39;;;;;;;5.38;1.40;;;;;;;5.62;100.00;95781.03;4998244;28;20049;-77
2023/01/12 09:19:05;;;;;;;5.82;1.02;;;;;;;5.62;100.00;95787.06;5000070;28;20054;-77
2023/01/12 09:21:31;;;;;;;4.93;1.52;;;;;;;5.75;100.00;95800.84;5001802;28;20049;-77
2023/01/12 09:23:57;;;;;;;3.13;1.10;;;;;;;5.67;100.00;95805.41;5029855;28;20052;-76
2023/01/12 09:26:25;;;;;;;5.15;1.20;;;;;;;5.80;100.00;95814.03;5036872;28;20038;-78
2023/01/12 09:28:51;;;;;;;7.20;1.50;;;;;;;5.76;100.00;95813.72;5022700;28;20093;-76
2023/01/12 09:31:22;;;;;;;4.88;0.90;;;;;;;5.93;100.00;95808.53;4997625;28;20045;-77
2023/01/12 09:33:48;;;;;;;5.63;1.48;;;;;;;5.92;100.00;95796.50;5003766;28;20045;-77
2023/01/12 09:36:16;;;;;;;9.98;1.20;;;;;;;5.96;100.00;95807.28;4997258;28;20050;-77
2023/01/12 09:38:43;;;;;;;4.95;0.95;;;;;;;6.07;100.00;95803.84;4982625;28;20057;-77
2023/01/12 09:47:03;;;;;;;9.82;1.70;;;;;;;5.89;100.00;95807.44;4997351;28;20038;-77
2023/01/12 09:49:34;;;;;;;5.03;1.20;;;;;;;5.72;100.00;95800.31;4996437;28;20073;-77
2023/01/12 09:52:19;;;;;;;6.03;1.70;;;;;;;5.59;100.00;95803.19;4997476;28;20125;-78
2023/01/12 09:54:48;;;;;;;9.52;1.50;;;;;;;5.59;100.00;95803.19;4990033;28;20488;-77
2023/01/12 09:57:46;;;;;;;8.85;1.40;;;;;;;5.75;100.00;95811.28;5016875;28;20415;-77
2023/01/12 10:00:15;;;;;;;11.73;1.77;;;;;;;5.59;100.00;95807.59;5006310;28;20043;-77
2023/01/12 10:02:46;;;;;;;11.10;1.70;;;;;;;5.69;100.00;95811.22;4997433;28;20050;-76
2023/01/12 10:05:24;;;;;;;11.50;2.38;;;;;;;5.63;100.00;95788.63;5019629;28;20038;-77
2023/01/12 10:07:53;;;;;;;2.10;1.13;;;;;;;5.64;100.00;95800.66;4980066;28;20201;-77
2023/01/12 10:10:19;;;;;;;6.43;1.10;;;;;;;5.62;100.00;95791.50;4996355;28;20046;-77
2023/01/12 10:12:51;;;;;;;8.18;1.20;;;;;;;5.71;100.00;95785.66;4993952;28;20053;-78
2023/01/12 10:15:34;;;;;;;7.25;1.40;;;;;;;5.83;100.00;95782.22;4998669;28;20038;-79
2023/01/12 10:18:18;;;;;;;2.33;1.23;;;;;;;5.90;100.00;95775.03;4996386;28;20427;-77
2023/01/12 10:20:44;;;;;;;5.07;1.20;;;;;;;5.78;100.00;95764.63;4979105;28;20042;-78
2023/01/12 10:23:09;;;;;;;5.55;1.50;;;;;;;5.87;100.00;95757.22;4996308;28;20389;-77
2023/01/12 10:25:46;;;;;;;8.57;1.60;;;;;;;5.95;100.00;95762.09;5021252;28;20037;-77
2023/01/12 10:28:28;;;;;;;7.88;1.48;;;;;;;6.02;100.00;95759.34;5010859;28;20120;-77
2023/01/12 10:30:55;;;;;;;3.15;1.30;;;;;;;6.15;100.00;95763.50;4978115;28;20125;-77
2023/01/12 10:33:33;;;;;;;6.03;1.70;;;;;;;6.30;100.00;95770.81;4978031;28;20046;-77
2023/01/12 10:36:14;;;;;;;11.63;1.42;;;;;;;6.46;100.00;95764.03;4982616;28;20657;-77
2023/01/12 10:38:56;;;;;;;5.20;1.30;;;;;;;6.62;100.00;95750.16;4995836;28;20046;-77
2023/01/12 10:41:25;;;;;;;8.02;1.77;;;;;;;6.83;100.00;95753.09;4977928;28;20038;-77
2023/01/12 10:43:53;;;;;;;5.57;1.50;;;;;;;6.88;100.00;95740.06;5007630;28;20041;-77
2023/01/12 10:46:21;;;;;;;3.90;1.10;;;;;;;6.97;100.00;95743.88;5021014;28;20049;-78
2023/01/12 10:48:53;;;;;;;6.60;1.40;;;;;;;7.00;100.00;95732.94;5027828;28;20070;-78
2023/01/12 10:51:20;;;;;;;6.95;1.30;;;;;;;7.04;100.00;95739.28;5029961;28;20095;-78
2023/01/12 10:53:49;;;;;;;6.68;1.35;;;;;;;7.14;100.00;95740.44;5003994;28;20559;-77
2023/01/12 10:56:18;;;;;;;6.15;1.25;;;;;;;7.24;100.00;95727.47;5000871;28;20042;-78
2023/01/12 10:59:01;;;;;;;7.28;0.88;;;;;;;7.23;100.00;95720.69;5015760;28;20049;-76
2023/01/12 11:01:48;;;;;;;8.13;1.30;;;;;;;7.38;100.00;95726.09;5005962;28;20463;-78
2023/01/12 11:04:19;;;;;;;1.45;0.70;;;;;;;7.37;100.00;95721.91;4994126;28;20042;-77
2023/01/12 11:07:09;;;;;;;2.60;0.85;;;;;;;7.32;97.59;95713.97;5018130;28;20045;-77
2023/01/12 11:09:35;;;;;;;2.65;0.88;;;;;;;7.40;96.14;95710.94;4998789;28;20428;-78
2023/01/12 11:12:04;;;;;;;4.57;1.20;;;;;;;7.37;100.00;95706.19;4977187;28;20050;-77
2023/01/12 11:14:36;;;;;;;5.78;1.48;;;;;;;7.31;100.00;95712.38;4993699;28;20383;-77
2023/01/12 11:17:46;;;;;;;5.32;1.30;;;;;;;7.26;100.00;95709.72;5011631;28;20041;-77
2023/01/12 11:20:26;;;;;;;5.25;1.20;;;;;;;7.18;100.00;95707.50;4979938;28;20066;-77
2023/01/12 11:22:56;;;;;;;5.40;1.17;;;;;;;7.20;100.00;95710.69;4997266;28;20101;-77
2023/01/12 11:25:24;;;;;;;7.05;1.10;;;;;;;7.19;100.00;95703.88;4980707;28;20047;-77
2023/01/12 11:27:52;;;;;;;4.15;1.02;;;;;;;7.21;100.00;95696.56;5024673;28;20042;-77
2023/01/12 11:30:29;;;;;;;3.88;1.05;;;;;;;7.36;100.00;95706.44;5009338;28;20046;-78
2023/01/12 11:33:07;;;;;;;2.78;0.90;;;;;;;7.53;99.12;95698.50;4981340;28;20049;-77
2023/01/12 11:35:36;;;;;;;3.67;0.98;;;;;;;7.50;94.35;95709.47;4998645;28;20043;-78
2023/01/12 11:38:12;;;;;;;3.78;0.98;;;;;;;7.55;88.61;95691.19;4989009;28;20050;-77
2023/01/12 11:40:39;;;;;;;4.15;1.25;;;;;;;7.59;87.79;95692.28;5001141;28;20550;-78
2023/01/12 11:43:54;;;;;;;3.67;0.80;;;;;;;7.60;81.98;95683.38;5009996;28;20046;-78
2023/01/12 11:46:35;;;;;;;2.30;0.82;;;;;;;7.67;83.18;95684.00;4981639;28;20088;-77
2023/01/12 11:49:13;;;;;;;3.42;1.10;;;;;;;7.62;90.22;95686.56;5019738;28;20042;-76
2023/01/12 11:51:40;;;;;;;2.95;1.05;;;;;;;7.73;85.29;95679.59;5027458;28;20039;-77
2023/01/12 11:54:14;;;;;;;2.25;1.13;;;;;;;7.69;86.58;95676.69;5001590;28;20412;-77
2023/01/12 11:57:12;;;;;;;3.97;1.52;;;;;;;7.69;85.41;95681.16;5002867;28;20038;-78
2023/01/12 12:00:00;;;;;;;3.92;1.20;;;;;;;7.73;85.41;95672.53;4975023;28;20053;-77
2023/01/12 12:02:38;;;;;;;4.10;1.27;;;;;;;7.64;85.41;95668.75;5003043;28;20149;-77
2023/01/12 12:05:46;;;;;;;2.15;0.95;;;;;;;7.66;88.12;95671.94;5003172;28;20126;-77
2023/01/12 12:08:42;;;;;;;1.52;0.68;;;;;;;7.66;90.24;95671.94;5002521;28;20052;-76
2023/01/12 12:11:33;;;;;;;1.75;0.60;;;;;;;7.78;85.17;95669.16;5028353;28;20042;-77
2023/01/12 12:14:17;;;;;;;5.80;1.40;;;;;;;7.69;86.54;95665.44;5020778;28;20049;-77
2023/01/12 12:16:57;;;;;;;1.80;0.75;;;;;;;7.65;89.43;95654.63;5020862;28;20044;-77
2023/01/12 12:19:43;;;;;;;3.90;0.90;;;;;;;7.66;85.91;95651.00;5011369;28;20042;-77
2023/01/12 12:22:40;;;;;;;2.08;1.00;;;;;;;7.66;86.58;95656.22;5012556;28;20470;-77
2023/01/12 12:25:19;;;;;;;1.08;0.50;;;;;;;7.71;85.62;95658.09;5020254;28;20109;-76